createdAt,value
2023-03-01T00:01:06.452Z,98538.56
2023-03-01T00:03:35.550Z,98533.75
2023-03-01T00:06:05.543Z,98535.69
2023-03-01T00:08:34.053Z,98528.34
2023-03-01T00:11:03.174Z,98526.78
2023-03-01T00:13:30.593Z,98511.47
2023-03-01T00:15:57.812Z,98529.25
2023-03-01T00:18:25.745Z,98531.19
2023-03-01T00:20:55.546Z,98532.97
2023-03-01T00:23:24.173Z,98526.53
2023-03-01T00:25:51.937Z,98535.72
2023-03-01T00:28:20.222Z,98534.25
2023-03-01T00:30:47.758Z,98526.84
2023-03-01T00:33:15.135Z,98527.09
2023-03-01T00:35:42.563Z,98522.19
2023-03-01T00:38:11.487Z,98511.06
2023-03-01T00:40:38.963Z,98520.75
2023-03-01T00:43:06.950Z,98524.13
2023-03-01T00:45:34.524Z,98521.78
2023-03-01T00:48:02.150Z,98513.56
2023-03-01T00:50:30.480Z,98521.88
2023-03-01T00:52:57.945Z,98524.47
2023-03-01T00:55:27.182Z,98515.44
2023-03-01T00:57:54.588Z,98510.63
2023-03-01T01:00:22.228Z,98516.66
2023-03-01T01:02:50.126Z,98505.94
2023-03-01T01:05:21.910Z,98515.91
2023-03-01T01:07:49.612Z,98513.50
2023-03-01T01:10:22.066Z,98520.28
2023-03-01T01:12:50.714Z,98517.78
2023-03-01T01:15:18.080Z,98512.28
2023-03-01T01:17:45.322Z,98517.91
2023-03-01T01:20:13.674Z,98516.28
2023-03-01T01:22:40.993Z,98522.19
2023-03-01T01:25:09.489Z,98509.97
2023-03-01T01:27:36.845Z,98510.84
2023-03-01T01:30:06.863Z,98504.31
2023-03-01T01:32:34.689Z,98514.28
2023-03-01T01:35:02.134Z,98521.06
2023-03-01T01:37:34.440Z,98520.31
2023-03-01T01:40:04.751Z,98514.75
2023-03-01T01:42:32.119Z,98510.75
2023-03-01T01:45:31.608Z,98518.13
2023-03-01T01:48:01.918Z,98508.50
2023-03-01T01:50:38.801Z,98515.22
2023-03-01T01:53:10.740Z,98520.38
2023-03-01T01:55:40.934Z,98513.94
2023-03-01T01:58:13.030Z,98502.81
2023-03-01T02:00:41.761Z,98509.97
2023-03-01T02:03:12.910Z,98516.88
2023-03-01T02:05:54.761Z,98516.75
2023-03-01T02:08:26.147Z,98506.34
2023-03-01T02:10:55.917Z,98517.63
2023-03-01T02:13:23.341Z,98511.03
2023-03-01T02:15:52.300Z,98511.91
2023-03-01T02:18:25.070Z,98507.88
2023-03-01T02:21:09.662Z,98502.25
2023-03-01T02:23:37.786Z,98505.53
2023-03-01T02:26:09.079Z,98507.97
2023-03-01T02:28:40.036Z,98512.94
2023-03-01T02:31:28.147Z,98505.69
2023-03-01T02:33:57.898Z,98512.00
2023-03-01T02:36:30.321Z,98512.94
2023-03-01T02:39:00.239Z,98503.63
2023-03-01T02:41:32.173Z,98522.53
2023-03-01T02:44:01.371Z,98523.47
2023-03-01T02:46:30.767Z,98534.31
2023-03-01T02:48:59.947Z,98521.50
2023-03-01T02:51:45.141Z,98515.94
2023-03-01T02:54:21.788Z,98518.28
2023-03-01T02:56:49.993Z,98521.72
2023-03-01T02:59:23.592Z,98520.28
2023-03-01T03:01:51.391Z,98529.44
2023-03-01T03:04:20.188Z,98530.25
2023-03-01T03:06:50.610Z,98524.44
2023-03-01T03:09:19.745Z,98521.94
2023-03-01T03:11:48.052Z,98527.22
2023-03-01T03:14:17.355Z,98533.75
2023-03-01T03:16:50.924Z,98531.44
2023-03-01T03:19:19.188Z,98532.31
2023-03-01T03:21:46.968Z,98535.09
2023-03-01T03:24:14.335Z,98527.78
2023-03-01T03:26:41.961Z,98530.91
2023-03-01T03:29:09.252Z,98530.16
2023-03-01T03:31:36.600Z,98528.59
2023-03-01T03:34:05.320Z,98530.31
2023-03-01T03:36:32.795Z,98535.31
2023-03-01T03:39:00.376Z,98535.31
2023-03-01T03:41:27.682Z,98532.97
2023-03-01T03:43:54.925Z,98540.44
2023-03-01T03:46:22.319Z,98536.34
2023-03-01T03:48:50.552Z,98547.97
2023-03-01T03:51:20.168Z,98536.41
2023-03-01T03:53:47.436Z,98538.97
2023-03-01T03:56:15.095Z,98533.47
2023-03-01T03:58:42.450Z,98545.84
2023-03-01T04:01:10.196Z,98541.00
2023-03-01T04:03:37.401Z,98538.59
2023-03-01T04:06:05.457Z,98535.28
2023-03-01T04:08:34.506Z,98542.63
2023-03-01T04:11:24.729Z,98519.91
2023-03-01T04:13:53.593Z,98550.97
2023-03-01T04:16:21.241Z,98536.19
2023-03-01T04:18:48.816Z,98552.66
2023-03-01T04:21:16.407Z,98560.19
2023-03-01T04:23:45.074Z,98556.91
2023-03-01T04:26:12.547Z,98545.69
2023-03-01T04:28:41.600Z,98540.19
2023-03-01T04:31:14.598Z,98565.59
2023-03-01T04:33:42.836Z,98561.47
2023-03-01T04:36:11.268Z,98561.22
2023-03-01T04:38:39.909Z,98564.50
2023-03-01T04:41:10.961Z,98567.53
2023-03-01T04:43:39.196Z,98568.84
2023-03-01T04:46:10.360Z,98570.16
2023-03-01T04:48:39.279Z,98564.03
2023-03-01T04:51:07.088Z,98571.94
2023-03-01T04:53:34.739Z,98573.69
2023-03-01T04:56:02.006Z,98572.81
2023-03-01T04:58:30.736Z,98573.63
2023-03-01T05:00:58.484Z,98575.38
2023-03-01T05:03:26.452Z,98579.53
2023-03-01T05:05:54.105Z,98577.94
2023-03-01T05:08:21.842Z,98582.63
2023-03-01T05:10:51.130Z,98582.31
2023-03-01T05:13:22.131Z,98591.25
2023-03-01T05:15:56.064Z,98589.22
2023-03-01T05:18:27.136Z,98583.50
2023-03-01T05:20:57.371Z,98590.19
2023-03-01T05:23:24.645Z,98593.41
2023-03-01T05:25:53.438Z,98595.69
2023-03-01T05:28:21.117Z,98598.16
2023-03-01T05:30:48.639Z,98605.81
2023-03-01T05:33:17.321Z,98603.66
2023-03-01T05:35:45.821Z,98603.66
2023-03-01T05:38:17.192Z,98605.59
2023-03-01T05:40:47.409Z,98617.84
2023-03-01T05:43:16.460Z,98612.59
2023-03-01T05:45:44.408Z,98618.41
2023-03-01T05:48:13.470Z,98616.06
2023-03-01T05:50:43.940Z,98610.75
2023-03-01T05:53:13.006Z,98595.09
2023-03-01T05:55:41.236Z,98622.78
2023-03-01T05:58:12.623Z,98619.72
2023-03-01T06:00:40.611Z,98616.19
2023-03-01T06:03:07.957Z,98623.81
2023-03-01T06:05:35.191Z,98628.41
2023-03-01T06:08:04.526Z,98625.31
2023-03-01T06:10:31.774Z,98630.16
2023-03-01T06:12:59.406Z,98634.69
2023-03-01T06:15:27.527Z,98636.00
2023-03-01T06:17:59.957Z,98630.13
2023-03-01T06:20:29.624Z,98625.19
2023-03-01T06:22:57.326Z,98640.94
2023-03-01T06:25:27.418Z,98646.34
2023-03-01T06:27:55.411Z,98645.03
2023-03-01T06:30:25.161Z,98646.41
2023-03-01T06:32:52.742Z,98651.00
2023-03-01T06:35:20.622Z,98654.88
2023-03-01T06:37:49.047Z,98661.00
2023-03-01T06:40:16.657Z,98655.19
2023-03-01T06:42:52.382Z,98655.44
2023-03-01T06:45:21.728Z,98659.03
2023-03-01T06:47:49.290Z,98662.38
2023-03-01T06:50:18.237Z,98658.41
2023-03-01T06:55:14.505Z,98657.63
2023-03-01T06:57:42.059Z,98655.22
2023-03-01T07:00:13.240Z,98643.63
2023-03-01T07:02:40.858Z,98662.09
2023-03-01T07:05:08.782Z,98657.09
2023-03-01T07:07:36.358Z,98661.31
2023-03-01T07:10:04.191Z,98658.66
2023-03-01T07:12:31.542Z,98666.13
2023-03-01T07:14:58.986Z,98655.16
2023-03-01T07:17:27.821Z,98662.13
2023-03-01T07:19:55.214Z,98665.69
2023-03-01T07:22:22.699Z,98675.59
2023-03-01T07:24:50.102Z,98677.25
2023-03-01T07:27:17.363Z,98680.72
2023-03-01T07:29:44.712Z,98680.44
2023-03-01T07:32:12.832Z,98683.81
2023-03-01T07:34:41.608Z,98680.28
2023-03-01T07:37:09.137Z,98684.25
2023-03-01T07:39:36.513Z,98685.38
2023-03-01T07:42:03.935Z,98682.88
2023-03-01T07:44:31.144Z,98689.63
2023-03-01T07:46:59.321Z,98695.06
2023-03-01T07:49:27.644Z,98691.34
2023-03-01T07:51:56.368Z,98699.81
2023-03-01T07:54:23.623Z,98703.22
2023-03-01T07:56:50.894Z,98706.13
2023-03-01T07:59:18.077Z,98702.22
2023-03-01T08:01:45.394Z,98708.03
2023-03-01T08:04:12.779Z,98704.22
2023-03-01T08:06:40.200Z,98700.78
2023-03-01T08:09:09.587Z,98698.53
2023-03-01T08:11:37.075Z,98696.47
2023-03-01T08:14:05.000Z,98696.41
2023-03-01T08:16:34.579Z,98705.16
2023-03-01T08:19:05.720Z,98698.19
2023-03-01T08:21:35.817Z,98710.44
2023-03-01T08:24:03.755Z,98710.06
2023-03-01T08:26:33.376Z,98709.34
2023-03-01T08:29:01.588Z,98709.28
2023-03-01T08:31:31.361Z,98697.66
2023-03-01T08:34:01.059Z,98691.69
2023-03-01T08:36:30.761Z,98709.66
2023-03-01T08:38:58.623Z,98708.28
2023-03-01T08:41:26.175Z,98701.31
2023-03-01T08:43:59.727Z,98710.03
2023-03-01T08:46:27.973Z,98707.06
2023-03-01T08:48:55.350Z,98700.09
2023-03-01T08:51:23.428Z,98704.94
2023-03-01T08:53:50.675Z,98708.25
2023-03-01T08:56:19.533Z,98691.88
2023-03-01T08:58:47.923Z,98718.59
2023-03-01T09:01:18.909Z,98718.06
2023-03-01T09:03:46.886Z,98716.53
2023-03-01T09:06:15.138Z,98704.56
2023-03-01T09:08:44.570Z,98708.34
2023-03-01T09:11:16.396Z,98715.09
2023-03-01T09:13:44.451Z,98713.69
2023-03-01T09:16:13.804Z,98713.16
2023-03-01T09:18:42.915Z,98721.06
2023-03-01T09:21:13.119Z,98724.50
2023-03-01T09:23:42.793Z,98704.56
2023-03-01T09:26:12.757Z,98719.66
2023-03-01T09:28:41.966Z,98722.06
2023-03-01T09:31:09.634Z,98722.13
2023-03-01T09:33:37.063Z,98721.25
2023-03-01T09:36:08.881Z,98707.09
2023-03-01T09:38:36.244Z,98723.06
2023-03-01T09:41:03.886Z,98720.78
2023-03-01T09:43:41.513Z,98712.13
2023-03-01T09:46:12.815Z,98722.63
2023-03-01T09:48:44.344Z,98719.47
2023-03-01T09:51:18.670Z,98722.00
2023-03-01T09:53:45.980Z,98722.22
2023-03-01T09:56:22.509Z,98712.38
2023-03-01T09:58:54.334Z,98723.50
2023-03-01T10:01:33.976Z,98724.28
2023-03-01T10:04:18.347Z,98714.00
2023-03-01T10:06:59.379Z,98706.88
2023-03-01T10:09:28.728Z,98719.63
2023-03-01T10:11:57.732Z,98738.09
2023-03-01T10:14:39.146Z,98747.97
2023-03-01T10:17:14.054Z,98738.44
2023-03-01T10:19:46.681Z,98725.19
2023-03-01T10:22:19.257Z,98740.00
2023-03-01T10:24:47.818Z,98747.56
2023-03-01T10:27:20.697Z,98742.63
2023-03-01T10:29:55.479Z,98740.03
2023-03-01T10:32:25.061Z,98747.75
2023-03-01T10:34:52.514Z,98754.00
2023-03-01T10:37:27.035Z,98746.38
2023-03-01T10:39:59.593Z,98755.19
2023-03-01T10:42:30.366Z,98759.00
2023-03-01T10:44:58.128Z,98755.44
2023-03-01T10:47:27.460Z,98734.03
2023-03-01T10:50:00.054Z,98743.34
2023-03-01T10:52:32.743Z,98772.69
2023-03-01T10:55:02.649Z,98759.41
2023-03-01T10:57:42.094Z,98756.28
2023-03-01T11:00:23.481Z,98748.47
2023-03-01T11:03:11.541Z,98758.31
2023-03-01T11:05:52.662Z,98750.16
2023-03-01T11:08:35.075Z,98707.94
2023-03-01T11:11:23.276Z,98766.97
2023-03-01T11:13:59.027Z,98776.31
2023-03-01T11:16:33.585Z,98771.38
2023-03-01T11:19:18.659Z,98756.81
2023-03-01T11:21:56.905Z,98764.16
2023-03-01T11:24:35.121Z,98731.69
2023-03-01T11:27:10.182Z,98756.03
2023-03-01T11:29:48.535Z,98750.59
2023-03-01T11:32:16.908Z,98734.44
2023-03-01T11:34:50.294Z,98748.41
2023-03-01T11:37:29.900Z,98745.31
2023-03-01T11:40:11.796Z,98759.53
2023-03-01T11:42:51.768Z,98749.88
2023-03-01T11:45:24.055Z,98773.31
2023-03-01T11:48:16.849Z,98740.94
2023-03-01T11:50:45.898Z,98762.31
2023-03-01T11:53:29.278Z,98753.13
2023-03-01T11:56:10.421Z,98748.84
2023-03-01T11:58:54.612Z,98758.78
2023-03-01T12:01:50.159Z,98770.13
2023-03-01T12:04:37.986Z,98770.88
2023-03-01T12:07:12.104Z,98768.16
2023-03-01T12:10:03.175Z,98739.47
2023-03-01T12:12:48.992Z,98769.91
2023-03-01T12:15:34.826Z,98776.16
2023-03-01T12:18:21.845Z,98762.00
2023-03-01T12:21:00.929Z,98771.25
2023-03-01T12:24:03.858Z,98771.97
2023-03-01T12:26:33.610Z,98768.06
2023-03-01T12:29:20.654Z,98784.63
2023-03-01T12:32:12.250Z,98778.22
2023-03-01T12:35:04.874Z,98771.38
2023-03-01T12:37:44.650Z,98767.03
2023-03-01T12:40:25.783Z,98768.56
2023-03-01T12:43:04.508Z,98763.84
2023-03-01T12:45:49.204Z,98775.16
2023-03-01T12:48:28.982Z,98773.53
2023-03-01T12:51:00.967Z,98757.56
2023-03-01T12:53:33.518Z,98752.72
2023-03-01T12:56:06.020Z,98761.06
2023-03-01T12:58:48.738Z,98766.59
2023-03-01T13:01:28.851Z,98779.28
2023-03-01T13:04:15.934Z,98754.63
2023-03-01T13:06:51.694Z,98764.75
2023-03-01T13:09:31.861Z,98783.94
2023-03-01T13:11:59.177Z,98779.34
2023-03-01T13:14:46.807Z,98749.41
2023-03-01T13:17:44.600Z,98752.81
2023-03-01T13:20:16.135Z,98773.47
2023-03-01T13:22:54.336Z,98771.34
2023-03-01T13:25:24.311Z,98779.97
2023-03-01T13:28:32.066Z,98770.44
2023-03-01T13:31:00.130Z,98774.81
2023-03-01T13:33:47.860Z,98768.09
2023-03-01T13:36:47.415Z,98752.81
2023-03-01T13:39:33.697Z,98760.53
2023-03-01T13:42:01.945Z,98767.09
2023-03-01T13:44:33.480Z,98776.69
2023-03-01T13:47:15.083Z,98771.94
2023-03-01T13:49:48.301Z,98773.66
2023-03-01T13:52:38.955Z,98765.88
2023-03-01T13:55:18.426Z,98760.41
2023-03-01T13:57:48.740Z,98761.59
2023-03-01T14:00:31.949Z,98776.81
2023-03-01T14:03:06.555Z,98739.34
2023-03-01T14:05:37.148Z,98761.88
2023-03-01T14:08:05.209Z,98759.56
2023-03-01T14:10:49.512Z,98748.84
2023-03-01T14:13:31.225Z,98749.75
2023-03-01T14:16:13.489Z,98755.03
2023-03-01T14:18:49.587Z,98734.34
2023-03-01T14:21:18.406Z,98752.94
2023-03-01T14:23:47.871Z,98752.78
2023-03-01T14:26:21.091Z,98744.28
2023-03-01T14:28:52.504Z,98759.22
2023-03-01T14:31:52.196Z,98723.63
2023-03-01T14:34:22.408Z,98747.94
2023-03-01T14:36:51.344Z,98726.50
2023-03-01T14:39:21.086Z,98702.88
2023-03-01T14:41:48.654Z,98744.44
2023-03-01T14:44:20.820Z,98747.50
2023-03-01T14:46:48.284Z,98734.97
2023-03-01T14:49:18.450Z,98723.25
2023-03-01T14:51:54.509Z,98723.00
2023-03-01T14:54:26.046Z,98734.97
2023-03-01T14:56:54.893Z,98728.63
2023-03-01T14:59:24.830Z,98735.25
2023-03-01T15:01:54.682Z,98733.47
2023-03-01T15:04:24.042Z,98709.94
2023-03-01T15:06:54.310Z,98735.44
2023-03-01T15:09:23.207Z,98729.59
2023-03-01T15:11:50.641Z,98701.78
2023-03-01T15:14:41.314Z,98714.94
2023-03-01T15:17:25.151Z,98738.28
2023-03-01T15:19:52.729Z,98729.97
2023-03-01T15:22:23.070Z,98726.78
2023-03-01T15:24:51.244Z,98732.31
2023-03-01T15:27:20.728Z,98727.19
2023-03-01T15:29:53.055Z,98733.56
2023-03-01T15:32:29.680Z,98718.25
2023-03-01T15:34:58.113Z,98721.50
2023-03-01T15:37:45.143Z,98736.44
2023-03-01T15:40:25.867Z,98729.53
2023-03-01T15:42:53.308Z,98720.16
2023-03-01T15:45:28.288Z,98720.34
2023-03-01T15:48:02.981Z,98751.09
2023-03-01T15:50:34.118Z,98745.09
2023-03-01T15:53:12.214Z,98729.53
2023-03-01T15:55:39.616Z,98732.59
2023-03-01T15:58:11.732Z,98728.00
2023-03-01T16:00:46.270Z,98736.06
2023-03-01T16:03:25.173Z,98732.59
2023-03-01T16:05:52.980Z,98740.91
2023-03-01T16:08:21.928Z,98741.69
2023-03-01T16:10:51.100Z,98738.28
2023-03-01T16:13:18.863Z,98727.31
2023-03-01T16:15:46.154Z,98719.78
2023-03-01T16:18:13.769Z,98706.09
2023-03-01T16:20:41.287Z,98717.63
2023-03-01T16:23:11.678Z,98733.47
2023-03-01T16:25:40.517Z,98727.72
2023-03-01T16:28:11.446Z,98727.47
2023-03-01T16:30:40.834Z,98702.25
2023-03-01T16:33:29.682Z,98737.75
2023-03-01T16:35:57.198Z,98733.09
2023-03-01T16:38:24.562Z,98726.78
2023-03-01T16:40:53.754Z,98732.59
2023-03-01T16:43:21.192Z,98732.59
2023-03-01T16:45:48.534Z,98721.75
2023-03-01T16:48:16.142Z,98734.81
2023-03-01T16:50:43.497Z,98712.16
2023-03-01T16:53:11.092Z,98703.03
2023-03-01T16:55:39.033Z,98689.38
2023-03-01T16:58:07.896Z,98714.13
2023-03-01T17:00:35.216Z,98720.50
2023-03-01T17:03:02.597Z,98716.09
2023-03-01T17:05:29.830Z,98699.66
2023-03-01T17:07:58.273Z,98712.16
2023-03-01T17:10:25.794Z,98707.88
2023-03-01T17:12:53.246Z,98702.53
2023-03-01T17:15:22.002Z,98699.38
2023-03-01T17:17:52.131Z,98697.88
2023-03-01T17:20:19.592Z,98688.56
2023-03-01T17:22:46.882Z,98680.63
2023-03-01T17:25:14.519Z,98684.81
2023-03-01T17:27:41.960Z,98675.16
2023-03-01T17:30:11.263Z,98663.78
2023-03-01T17:32:41.063Z,98670.16
2023-03-01T17:35:11.701Z,98673.53
2023-03-01T17:37:39.965Z,98685.44
2023-03-01T17:40:08.501Z,98683.91
2023-03-01T17:42:36.151Z,98680.34
2023-03-01T17:45:04.019Z,98682.13
2023-03-01T17:47:31.848Z,98689.00
2023-03-01T17:50:00.705Z,98679.69
2023-03-01T17:52:28.020Z,98674.81
2023-03-01T17:54:55.319Z,98684.91
2023-03-01T17:57:22.847Z,98669.44
2023-03-01T17:59:50.109Z,98670.41
2023-03-01T18:02:19.235Z,98686.25
2023-03-01T18:04:46.633Z,98675.50
2023-03-01T18:07:15.367Z,98663.09
2023-03-01T18:09:42.622Z,98665.41
2023-03-01T18:12:10.861Z,98664.41
2023-03-01T18:14:38.472Z,98660.34
2023-03-01T18:17:11.869Z,98654.88
2023-03-01T18:19:41.319Z,98656.22
2023-03-01T18:22:11.175Z,98658.88
2023-03-01T18:24:39.996Z,98656.56
2023-03-01T18:27:07.964Z,98661.84
2023-03-01T18:29:37.165Z,98665.84
2023-03-01T18:32:05.678Z,98658.53
2023-03-01T18:34:34.937Z,98647.00
2023-03-01T18:37:09.470Z,98644.59
2023-03-01T18:39:37.276Z,98636.53
2023-03-01T18:42:06.269Z,98651.56
2023-03-01T18:44:33.762Z,98651.91
2023-03-01T18:47:01.452Z,98652.63
2023-03-01T18:49:28.785Z,98635.72
2023-03-01T18:51:56.808Z,98636.97
2023-03-01T18:54:24.464Z,98651.72
2023-03-01T18:56:51.977Z,98639.94
2023-03-01T18:59:20.885Z,98636.63
2023-03-01T19:01:48.531Z,98646.63
2023-03-01T19:04:15.983Z,98638.41
2023-03-01T19:06:43.324Z,98644.94
2023-03-01T19:09:11.598Z,98645.13
2023-03-01T19:11:38.949Z,98647.63
2023-03-01T19:14:06.395Z,98642.44
2023-03-01T19:16:36.037Z,98636.72
2023-03-01T19:19:06.161Z,98611.31
2023-03-01T19:21:34.227Z,98628.16
2023-03-01T19:24:02.832Z,98629.75
2023-03-01T19:26:31.438Z,98639.59
2023-03-01T19:28:59.274Z,98633.16
2023-03-01T19:31:28.816Z,98601.84
2023-03-01T19:34:11.441Z,98621.44
2023-03-01T19:36:39.844Z,98622.06
2023-03-01T19:39:07.404Z,98619.03
2023-03-01T19:41:34.946Z,98622.16
2023-03-01T19:44:04.754Z,98622.94
2023-03-01T19:46:33.324Z,98622.06
2023-03-01T19:49:03.684Z,98611.97
2023-03-01T19:51:36.740Z,98602.75
2023-03-01T19:54:06.190Z,98622.06
2023-03-01T19:56:34.868Z,98611.44
2023-03-01T19:59:04.670Z,98609.00
2023-03-01T20:01:34.709Z,98603.13
2023-03-01T20:04:04.968Z,98601.31
2023-03-01T20:06:32.759Z,98606.31
2023-03-01T20:09:09.053Z,98607.13
2023-03-01T20:11:43.460Z,98599.81
2023-03-01T20:14:12.411Z,98601.50
2023-03-01T20:16:40.245Z,98596.69
2023-03-01T20:19:09.291Z,98603.22
2023-03-01T20:21:37.061Z,98599.00
2023-03-01T20:24:05.152Z,98594.91
2023-03-01T20:26:33.439Z,98590.09
2023-03-01T20:29:00.894Z,98601.59
2023-03-01T20:31:29.918Z,98591.69
2023-03-01T20:33:58.939Z,98590.88
2023-03-01T20:36:28.048Z,98584.28
2023-03-01T20:38:55.793Z,98582.72
2023-03-01T20:41:26.152Z,98582.03
2023-03-01T20:43:58.747Z,98585.22
2023-03-01T20:46:27.135Z,98580.22
2023-03-01T20:48:54.757Z,98578.81
2023-03-01T20:51:22.255Z,98577.19
2023-03-01T20:53:51.084Z,98583.28
2023-03-01T20:56:19.994Z,98572.56
2023-03-01T20:59:04.429Z,98579.41
2023-03-01T21:01:31.975Z,98571.91
2023-03-01T21:03:59.318Z,98566.84
2023-03-01T21:06:26.747Z,98582.72
2023-03-01T21:08:56.490Z,98573.63
2023-03-01T21:11:25.513Z,98572.28
2023-03-01T21:13:52.988Z,98566.75
2023-03-01T21:16:21.050Z,98570.41
2023-03-01T21:18:49.081Z,98573.59
2023-03-01T21:21:18.699Z,98556.63
2023-03-01T21:23:47.002Z,98577.91
2023-03-01T21:26:19.481Z,98564.47
2023-03-01T21:28:47.957Z,98577.25
2023-03-01T21:31:17.318Z,98586.38
2023-03-01T21:33:47.559Z,98580.56
2023-03-01T21:36:15.767Z,98585.75
2023-03-01T21:38:44.519Z,98584.31
2023-03-01T21:41:16.316Z,98580.19
2023-03-01T21:43:45.602Z,98585.13
2023-03-01T21:46:15.732Z,98580.28
2023-03-01T21:48:45.293Z,98577.63
2023-03-01T21:51:15.214Z,98577.69
2023-03-01T21:53:42.770Z,98578.44
2023-03-01T21:56:15.257Z,98566.09
2023-03-01T21:58:44.199Z,98576.28
2023-03-01T22:01:14.200Z,98573.16
2023-03-01T22:03:47.199Z,98571.09
2023-03-01T22:06:29.809Z,98578.31
2023-03-01T22:08:58.746Z,98582.69
2023-03-01T22:11:27.834Z,98580.94
2023-03-01T22:13:56.765Z,98581.00
2023-03-01T22:16:26.526Z,98577.88
2023-03-01T22:18:54.013Z,98566.28
2023-03-01T22:21:23.197Z,98579.31
2023-03-01T22:23:51.515Z,98582.69
2023-03-01T22:26:24.592Z,98574.31
2023-03-01T22:28:52.265Z,98579.06
2023-03-01T22:31:21.459Z,98583.88
2023-03-01T22:33:49.029Z,98569.75
2023-03-01T22:36:16.483Z,98568.06
2023-03-01T22:38:44.085Z,98576.63
2023-03-01T22:41:11.457Z,98574.06
2023-03-01T22:43:39.402Z,98577.50
2023-03-01T22:46:11.693Z,98578.50
2023-03-01T22:48:40.670Z,98579.31
2023-03-01T22:51:10.258Z,98583.25
2023-03-01T22:53:37.766Z,98581.56
2023-03-01T22:56:13.550Z,98592.63
2023-03-01T22:58:40.967Z,98593.50
2023-03-01T23:01:13.129Z,98581.81
2023-03-01T23:03:41.990Z,98579.69
2023-03-01T23:06:10.491Z,98582.53
2023-03-01T23:08:37.916Z,98590.94
2023-03-01T23:11:10.656Z,98591.63
2023-03-01T23:13:37.865Z,98593.31
2023-03-01T23:16:06.686Z,98584.88
2023-03-01T23:18:34.130Z,98591.38
2023-03-01T23:21:08.101Z,98592.19
2023-03-01T23:23:35.494Z,98592.69
2023-03-01T23:26:02.951Z,98602.69
2023-03-01T23:28:30.381Z,98615.28
2023-03-01T23:30:58.820Z,98618.66
2023-03-01T23:33:27.408Z,98607.88
2023-03-01T23:35:55.251Z,98591.28
2023-03-01T23:38:24.278Z,98584.47
2023-03-01T23:40:51.641Z,98591.97
2023-03-01T23:43:19.168Z,98589.31
2023-03-01T23:45:46.545Z,98602.69
2023-03-01T23:48:14.150Z,98606.81
2023-03-01T23:50:44.344Z,98595.94
2023-03-01T23:53:14.105Z,98597.38
2023-03-01T23:55:46.141Z,98589.22
2023-03-01T23:58:13.977Z,98599.06
